Time;durP1;ratioP1;P1;durP2;ratioP2;P2;SDS_P1;SDS_P2;PMS_P1;PMS_P2;Temp;Humidity;BMP_temperature;BMP_pressure;BME280_temperature;BME280_humidity;BME280_pressure;Samples;Min_cycle;Max_cycle;Signal;HPM_P1;HPM_P2
2023/03/04 00:01:12;;;;;;;19.60;11.15;;;3.60;64.70;;;;;;4937805;29;20235;-79
2023/03/04 00:03:40;;;;;;;20.40;12.23;;;3.50;64.80;;;;;;4937963;29;20234;-79
2023/03/04 00:06:09;;;;;;;23.77;11.23;;;3.50;64.90;;;;;;4933778;29;20664;-78
2023/03/04 00:08:37;;;;;;;20.48;10.85;;;3.50;65.00;;;;;;4913446;29;20208;-79
2023/03/04 00:11:05;;;;;;;21.70;11.10;;;3.50;65.00;;;;;;4929988;29;20205;-79
2023/03/04 00:13:33;;;;;;;24.58;12.75;;;3.50;65.00;;;;;;4935266;29;20222;-79
2023/03/04 00:16:01;;;;;;;24.73;10.45;;;3.50;65.00;;;;;;4930018;29;20231;-78
2023/03/04 00:18:29;;;;;;;18.25;10.10;;;3.50;65.10;;;;;;4937963;29;20212;-79
2023/03/04 00:20:57;;;;;;;16.10;9.73;;;3.50;65.00;;;;;;4931830;29;20994;-79
2023/03/04 00:23:27;;;;;;;20.08;9.90;;;3.50;65.00;;;;;;4937713;29;20196;-80
2023/03/04 00:26:00;;;;;;;19.33;10.18;;;3.40;65.00;;;;;;4933673;29;20216;-79
2023/03/04 00:28:29;;;;;;;21.50;11.07;;;3.40;64.90;;;;;;4927987;29;20224;-79
2023/03/04 00:30:56;;;;;;;20.98;11.20;;;3.30;65.00;;;;;;4938386;29;21182;-80
2023/03/04 00:33:24;;;;;;;21.98;10.40;;;3.30;65.00;;;;;;4930780;29;20682;-80
2023/03/04 00:35:53;;;;;;;20.95;10.70;;;3.30;65.10;;;;;;4928996;29;20211;-79
2023/03/04 00:38:21;;;;;;;22.45;10.02;;;3.30;65.00;;;;;;4935317;29;20204;-79
2023/03/04 00:40:50;;;;;;;20.70;10.80;;;3.20;64.80;;;;;;4929055;29;20873;-80
2023/03/04 00:43:18;;;;;;;43.65;18.48;;;3.10;64.80;;;;;;4935444;29;20329;-80
2023/03/04 00:45:46;;;;;;;66.72;22.45;;;3.00;64.80;;;;;;4935958;29;20209;-80
2023/03/04 00:48:16;;;;;;;22.73;11.65;;;3.00;64.80;;;;;;4929264;29;20252;-80
2023/03/04 00:50:45;;;;;;;22.08;12.07;;;2.90;64.90;;;;;;4929705;29;20235;-80
2023/03/04 00:53:12;;;;;;;26.95;12.38;;;2.80;65.10;;;;;;4941846;29;20231;-78
2023/03/04 00:55:40;;;;;;;21.80;11.82;;;2.90;65.30;;;;;;4910227;29;20282;-78
2023/03/04 00:58:10;;;;;;;38.38;17.38;;;2.80;65.20;;;;;;4918411;29;20212;-78
2023/03/04 01:00:38;;;;;;;27.17;12.60;;;2.80;65.10;;;;;;4929418;29;20291;-78
2023/03/04 01:03:07;;;;;;;21.23;10.27;;;2.70;65.20;;;;;;4927671;29;20203;-78
2023/03/04 01:05:35;;;;;;;22.55;11.02;;;2.70;65.40;;;;;;4930081;29;20207;-78
2023/03/04 01:08:04;;;;;;;20.30;10.07;;;2.70;65.40;;;;;;4918946;29;20207;-79
2023/03/04 01:10:32;;;;;;;16.17;9.38;;;2.70;65.40;;;;;;4932727;29;20217;-78
2023/03/04 01:13:00;;;;;;;24.92;11.32;;;2.70;65.30;;;;;;4933748;29;20240;-80
2023/03/04 01:15:30;;;;;;;25.58;11.70;;;2.70;65.30;;;;;;4930916;29;20215;-80
2023/03/04 01:17:58;;;;;;;16.65;10.38;;;2.60;65.20;;;;;;4913887;29;20212;-79
2023/03/04 01:20:25;;;;;;;18.77;9.98;;;2.60;65.20;;;;;;4920746;29;20681;-80
2023/03/04 01:22:53;;;;;;;18.25;10.15;;;2.50;65.30;;;;;;4934240;29;20203;-81
2023/03/04 01:25:21;;;;;;;23.77;11.63;;;2.50;65.60;;;;;;4937647;29;20267;-80
2023/03/04 01:27:49;;;;;;;23.42;12.25;;;2.60;65.70;;;;;;4935620;29;20204;-80
2023/03/04 01:30:19;;;;;;;21.50;12.02;;;2.70;65.70;;;;;;4933212;29;20200;-78
2023/03/04 01:32:49;;;;;;;26.98;12.55;;;2.70;65.60;;;;;;4930761;29;20285;-79
2023/03/04 01:35:18;;;;;;;37.10;18.58;;;2.60;65.40;;;;;;4918855;29;20215;-79
2023/03/04 01:37:46;;;;;;;35.88;16.38;;;2.50;65.50;;;;;;4933143;29;20223;-80
2023/03/04 01:40:14;;;;;;;24.98;13.98;;;2.50;65.60;;;;;;4934305;29;20195;-79
2023/03/04 01:42:43;;;;;;;23.15;11.95;;;2.50;65.50;;;;;;4922789;29;20220;-78
2023/03/04 01:45:14;;;;;;;18.35;11.32;;;2.40;65.60;;;;;;4925089;29;20204;-79
2023/03/04 01:47:47;;;;;;;24.77;12.60;;;2.40;65.80;;;;;;4917229;29;20223;-81
2023/03/04 01:50:22;;;;;;;36.80;13.45;;;2.40;65.90;;;;;;4921855;29;20235;-81
2023/03/04 01:52:50;;;;;;;26.65;13.27;;;2.40;66.00;;;;;;4931566;29;20214;-81
2023/03/04 01:55:20;;;;;;;28.58;15.15;;;2.50;66.10;;;;;;4941598;29;20216;-78
2023/03/04 01:57:50;;;;;;;24.60;13.82;;;2.50;65.80;;;;;;4931964;29;20200;-79
2023/03/04 02:00:22;;;;;;;22.98;13.85;;;2.50;65.80;;;;;;4919113;29;20572;-79
2023/03/04 02:02:53;;;;;;;26.40;13.90;;;2.40;66.00;;;;;;4915877;29;20618;-78
2023/03/04 02:05:24;;;;;;;30.80;14.18;;;2.50;66.10;;;;;;4931464;29;20874;-79
2023/03/04 02:07:54;;;;;;;21.27;12.05;;;2.50;66.10;;;;;;4918912;29;20215;-79
2023/03/04 02:10:23;;;;;;;21.27;11.10;;;2.50;66.00;;;;;;4930338;29;20211;-79
2023/03/04 02:12:51;;;;;;;24.40;13.50;;;2.50;65.80;;;;;;4933550;29;20196;-79
2023/03/04 02:15:20;;;;;;;25.00;13.85;;;2.40;65.70;;;;;;4926860;29;21048;-79
2023/03/04 02:17:48;;;;;;;24.63;13.20;;;2.20;65.60;;;;;;4916310;29;20216;-78
2023/03/04 02:20:32;;;;;;;22.00;12.80;;;2.10;65.70;;;;;;4943211;29;20632;-79
2023/03/04 02:23:07;;;;;;;25.15;11.85;;;2.10;65.80;;;;;;4935785;29;21051;-79
2023/03/04 02:25:42;;;;;;;21.75;12.25;;;2.00;65.90;;;;;;4929002;29;20207;-79
2023/03/04 02:28:12;;;;;;;27.23;11.82;;;2.00;65.90;;;;;;4914910;29;20200;-78
2023/03/04 02:30:40;;;;;;;20.50;12.20;;;2.00;66.20;;;;;;4935048;29;20261;-79
2023/03/04 02:33:15;;;;;;;23.45;14.00;;;2.00;66.20;;;;;;4918648;29;20234;-79
2023/03/04 02:35:43;;;;;;;24.40;12.35;;;2.00;66.50;;;;;;4931768;29;20211;-79
2023/03/04 02:38:12;;;;;;;23.42;12.00;;;2.10;66.50;;;;;;4928571;29;20251;-79
2023/03/04 02:40:45;;;;;;;22.88;12.95;;;2.10;66.60;;;;;;4930032;29;20296;-78
2023/03/04 02:43:16;;;;;;;20.38;11.95;;;2.10;66.60;;;;;;4922281;29;20262;-79
2023/03/04 02:45:46;;;;;;;25.23;13.00;;;2.20;66.60;;;;;;4941418;29;20216;-79
2023/03/04 02:48:18;;;;;;;25.80;12.38;;;2.20;66.70;;;;;;4921024;29;20218;-79
2023/03/04 02:50:49;;;;;;;26.45;13.23;;;2.20;66.90;;;;;;4928050;29;20204;-79
2023/03/04 02:53:19;;;;;;;23.73;13.00;;;2.30;67.00;;;;;;4939129;29;20204;-80
2023/03/04 02:55:48;;;;;;;23.48;12.95;;;2.40;67.10;;;;;;4918714;29;20586;-79
2023/03/04 02:58:19;;;;;;;24.23;11.90;;;2.40;67.10;;;;;;4912670;29;20215;-79
2023/03/04 03:00:48;;;;;;;21.77;11.95;;;2.50;67.20;;;;;;4918079;29;20247;-79
2023/03/04 03:03:16;;;;;;;25.80;12.57;;;2.50;67.20;;;;;;4918221;29;20205;-79
2023/03/04 03:05:44;;;;;;;23.77;12.43;;;2.60;67.20;;;;;;4928553;29;20208;-80
2023/03/04 03:08:12;;;;;;;22.77;13.13;;;2.60;67.20;;;;;;4925006;29;20212;-78
2023/03/04 03:10:41;;;;;;;25.63;12.80;;;2.60;67.20;;;;;;4930843;29;20212;-78
2023/03/04 03:13:09;;;;;;;22.45;13.23;;;2.60;67.30;;;;;;4916415;29;20208;-78
2023/03/04 03:15:41;;;;;;;20.85;11.77;;;2.70;67.40;;;;;;4928981;29;20226;-78
2023/03/04 03:18:10;;;;;;;20.90;11.02;;;2.70;67.40;;;;;;4933444;29;20208;-78
2023/03/04 03:20:38;;;;;;;24.60;13.00;;;2.70;67.40;;;;;;4921491;29;20683;-78
2023/03/04 03:23:06;;;;;;;22.55;12.70;;;2.80;67.50;;;;;;4943009;29;20206;-78
2023/03/04 03:25:34;;;;;;;26.02;13.85;;;2.80;67.50;;;;;;4934104;29;20219;-78
2023/03/04 03:28:03;;;;;;;25.17;13.43;;;2.80;67.60;;;;;;4932325;29;20208;-78
2023/03/04 03:30:31;;;;;;;23.85;12.52;;;2.90;67.70;;;;;;4912652;29;20239;-78
2023/03/04 03:33:00;;;;;;;24.35;12.75;;;2.90;67.80;;;;;;4933820;29;20215;-78
2023/03/04 03:35:28;;;;;;;23.58;11.95;;;2.90;67.80;;;;;;4931680;29;20235;-79
2023/03/04 03:38:02;;;;;;;25.88;13.10;;;3.00;67.80;;;;;;4935340;29;20286;-78
2023/03/04 03:40:30;;;;;;;26.10;13.45;;;3.00;67.80;;;;;;4932752;29;20212;-78
2023/03/04 03:42:59;;;;;;;25.73;13.63;;;3.00;67.90;;;;;;4924484;29;20271;-78
2023/03/04 03:45:29;;;;;;;25.20;13.70;;;3.00;68.00;;;;;;4930648;29;20203;-79
2023/03/04 03:47:57;;;;;;;32.65;13.35;;;3.10;67.90;;;;;;4914986;29;20581;-79
2023/03/04 03:50:27;;;;;;;21.95;12.90;;;3.10;68.00;;;;;;4930968;29;20193;-80
2023/03/04 03:52:57;;;;;;;22.88;12.15;;;3.10;68.00;;;;;;4937137;29;20205;-79
2023/03/04 03:55:28;;;;;;;24.92;13.23;;;3.20;68.00;;;;;;4937369;29;20689;-79
2023/03/04 03:57:57;;;;;;;28.38;13.93;;;3.20;68.10;;;;;;4934139;29;20259;-78
2023/03/04 04:00:25;;;;;;;24.95;13.43;;;3.10;68.10;;;;;;4929357;29;20216;-81
2023/03/04 04:02:54;;;;;;;31.95;14.98;;;3.20;68.20;;;;;;4936760;29;20197;-78
2023/03/04 04:05:22;;;;;;;26.33;14.43;;;3.20;68.30;;;;;;4934149;29;20196;-78
2023/03/04 04:07:51;;;;;;;25.13;13.70;;;3.20;68.50;;;;;;4930808;29;20728;-78
2023/03/04 04:10:21;;;;;;;28.25;15.80;;;3.20;68.50;;;;;;4933651;29;20296;-78
2023/03/04 04:12:49;;;;;;;26.13;14.98;;;3.20;68.60;;;;;;4931433;29;20256;-78
2023/03/04 04:15:17;;;;;;;27.88;14.60;;;3.20;68.70;;;;;;4918912;29;20243;-78
2023/03/04 04:17:46;;;;;;;27.80;16.00;;;3.30;68.70;;;;;;4934910;29;20223;-78
2023/03/04 04:20:14;;;;;;;27.52;15.98;;;3.30;68.80;;;;;;4928642;29;20212;-78
2023/03/04 04:22:42;;;;;;;28.20;14.65;;;3.30;68.80;;;;;;4935985;29;20217;-78
2023/03/04 04:25:11;;;;;;;30.85;16.05;;;3.30;68.90;;;;;;4937865;29;20200;-78
2023/03/04 04:27:39;;;;;;;29.17;14.32;;;3.30;68.90;;;;;;4938271;29;20203;-78
2023/03/04 04:30:09;;;;;;;29.52;14.90;;;3.30;69.00;;;;;;4914533;29;20701;-78
2023/03/04 04:32:38;;;;;;;32.25;14.45;;;3.40;69.10;;;;;;4938739;28;20628;-78
2023/03/04 04:35:07;;;;;;;27.90;14.00;;;3.40;69.10;;;;;;4932991;29;20215;-78
2023/03/04 04:37:35;;;;;;;26.05;15.15;;;3.40;69.30;;;;;;4935197;29;20209;-78
2023/03/04 04:40:04;;;;;;;27.08;14.25;;;3.50;69.40;;;;;;4937088;29;20196;-78
2023/03/04 04:42:33;;;;;;;30.55;14.52;;;3.40;69.30;;;;;;4932177;29;20263;-78
2023/03/04 04:45:02;;;;;;;30.38;15.93;;;3.50;69.40;;;;;;4935524;29;20204;-78
2023/03/04 04:47:30;;;;;;;31.25;15.25;;;3.50;69.50;;;;;;4932179;29;20212;-79
2023/03/04 04:49:58;;;;;;;33.03;15.13;;;3.50;69.50;;;;;;4926436;29;20208;-77
2023/03/04 04:52:26;;;;;;;29.60;16.20;;;3.50;69.60;;;;;;4934021;29;20669;-78
2023/03/04 04:54:53;;;;;;;30.13;15.60;;;3.50;69.50;;;;;;4933170;29;20232;-78
2023/03/04 04:57:21;;;;;;;26.77;15.68;;;3.50;69.60;;;;;;4934244;29;20262;-78
2023/03/04 04:59:54;;;;;;;32.13;16.60;;;3.60;69.70;;;;;;4933071;29;20196;-78
2023/03/04 05:02:22;;;;;;;28.85;15.32;;;3.60;69.80;;;;;;4933457;29;20228;-78
2023/03/04 05:04:50;;;;;;;29.95;15.30;;;3.60;69.80;;;;;;4934552;29;20248;-78
2023/03/04 05:07:18;;;;;;;29.20;15.65;;;3.60;69.90;;;;;;4930090;29;20655;-78
2023/03/04 05:09:46;;;;;;;29.15;15.00;;;3.60;69.90;;;;;;4929651;29;20684;-79
2023/03/04 05:12:14;;;;;;;26.17;15.30;;;3.60;70.10;;;;;;4938195;29;20211;-78
2023/03/04 05:14:42;;;;;;;35.42;17.58;;;3.70;70.10;;;;;;4935412;29;20223;-80
2023/03/04 05:17:13;;;;;;;31.85;16.50;;;3.70;70.20;;;;;;4933021;29;20251;-79
2023/03/04 05:19:42;;;;;;;30.10;15.82;;;3.70;70.20;;;;;;4936153;29;20235;-79
2023/03/04 05:22:11;;;;;;;28.60;15.55;;;3.70;70.20;;;;;;4934481;29;20196;-79
2023/03/04 05:24:39;;;;;;;28.50;16.75;;;3.70;70.30;;;;;;4938141;29;20202;-79
2023/03/04 05:27:06;;;;;;;31.90;16.20;;;3.70;70.20;;;;;;4932898;29;20213;-79
2023/03/04 05:29:34;;;;;;;34.10;17.45;;;3.70;70.30;;;;;;4936507;29;20204;-77
2023/03/04 05:32:02;;;;;;;30.33;16.65;;;3.70;70.30;;;;;;4931239;29;20271;-77
2023/03/04 05:34:34;;;;;;;33.08;16.50;;;3.70;70.40;;;;;;4935399;29;20204;-79
2023/03/04 05:37:02;;;;;;;31.70;15.77;;;3.70;70.50;;;;;;4923659;29;20601;-78
2023/03/04 05:39:30;;;;;;;30.95;15.52;;;3.70;70.50;;;;;;4935257;29;20228;-80
2023/03/04 05:41:57;;;;;;;29.65;17.50;;;3.70;70.50;;;;;;4933738;29;20212;-80
2023/03/04 05:44:26;;;;;;;30.00;16.65;;;3.80;70.50;;;;;;4932625;29;20207;-80
2023/03/04 05:46:54;;;;;;;29.05;17.50;;;3.80;70.50;;;;;;4916285;29;20212;-80
2023/03/04 05:49:22;;;;;;;31.08;15.88;;;3.80;70.50;;;;;;4940695;29;20223;-79
2023/03/04 05:51:52;;;;;;;34.97;18.60;;;3.80;70.60;;;;;;4935725;29;20251;-80
2023/03/04 05:54:20;;;;;;;29.55;16.17;;;3.80;70.70;;;;;;4923633;29;20199;-80
2023/03/04 05:56:48;;;;;;;34.13;16.73;;;3.80;70.60;;;;;;4932220;29;20649;-81
2023/03/04 05:59:19;;;;;;;28.45;16.00;;;3.80;70.60;;;;;;4927973;29;20204;-80
2023/03/04 06:01:47;;;;;;;31.20;16.63;;;3.80;70.70;;;;;;4939528;29;20234;-79
2023/03/04 06:04:15;;;;;;;30.73;16.67;;;3.80;70.90;;;;;;4941107;29;20219;-79
2023/03/04 06:06:45;;;;;;;30.88;16.45;;;3.80;70.90;;;;;;4924206;29;20215;-79
2023/03/04 06:09:19;;;;;;;28.52;16.38;;;3.80;71.00;;;;;;4930725;29;20211;-79
2023/03/04 06:11:47;;;;;;;30.15;17.20;;;3.80;71.00;;;;;;4932488;29;20996;-79
2023/03/04 06:14:16;;;;;;;35.10;16.98;;;3.90;71.00;;;;;;4934217;29;20282;-79
2023/03/04 06:16:44;;;;;;;32.25;17.05;;;3.90;71.00;;;;;;4930182;29;20627;-79
2023/03/04 06:19:12;;;;;;;32.42;16.65;;;3.90;71.00;;;;;;4928179;29;20236;-77
2023/03/04 06:21:40;;;;;;;29.17;16.75;;;3.90;71.10;;;;;;4929604;29;21150;-78
2023/03/04 06:24:09;;;;;;;35.25;17.70;;;3.90;71.10;;;;;;4930134;29;20212;-77
2023/03/04 06:26:38;;;;;;;31.10;17.45;;;3.90;71.10;;;;;;4932079;29;20208;-78
2023/03/04 06:29:07;;;;;;;31.00;17.00;;;3.90;71.10;;;;;;4929000;29;20216;-78
2023/03/04 06:31:36;;;;;;;30.80;17.35;;;3.90;71.10;;;;;;4931570;29;20230;-78
2023/03/04 06:34:04;;;;;;;33.22;17.85;;;3.90;71.20;;;;;;4931102;29;20709;-79
2023/03/04 06:36:32;;;;;;;40.70;18.50;;;3.90;71.20;;;;;;4933330;29;20212;-79
2023/03/04 06:39:02;;;;;;;32.50;17.80;;;4.00;71.10;;;;;;4925073;29;20205;-79
2023/03/04 06:41:30;;;;;;;34.20;17.92;;;4.00;71.10;;;;;;4933535;29;20208;-79
2023/03/04 06:43:59;;;;;;;37.55;18.58;;;4.00;71.10;;;;;;4926261;29;20208;-79
2023/03/04 06:46:27;;;;;;;36.08;17.00;;;4.00;71.10;;;;;;4935954;29;20420;-79
2023/03/04 06:48:57;;;;;;;33.42;18.77;;;4.00;71.10;;;;;;4925036;29;20302;-79
2023/03/04 06:51:26;;;;;;;35.72;18.15;;;4.00;71.20;;;;;;4935833;29;20609;-79
2023/03/04 06:53:55;;;;;;;38.55;18.83;;;4.00;71.30;;;;;;4933196;29;20625;-79
2023/03/04 06:56:22;;;;;;;33.53;17.45;;;4.00;71.20;;;;;;4938683;29;20216;-79
2023/03/04 06:58:50;;;;;;;33.60;18.45;;;4.00;71.30;;;;;;4939132;29;20210;-79
2023/03/04 07:01:23;;;;;;;32.42;19.42;;;4.00;71.30;;;;;;4928249;29;20295;-79
2023/03/04 07:03:52;;;;;;;35.80;18.90;;;4.00;71.40;;;;;;4935761;29;20211;-79
2023/03/04 07:06:23;;;;;;;36.92;19.52;;;4.00;71.40;;;;;;4936236;29;20324;-79
2023/03/04 07:08:52;;;;;;;34.33;18.55;;;4.00;71.40;;;;;;4926477;29;20232;-79
2023/03/04 07:11:22;;;;;;;32.58;18.33;;;4.00;71.50;;;;;;4939368;29;20271;-79
2023/03/04 07:13:50;;;;;;;34.65;18.77;;;4.00;71.50;;;;;;4938772;29;20208;-79
2023/03/04 07:16:22;;;;;;;31.15;18.23;;;4.00;71.50;;;;;;4947015;29;20224;-79
2023/03/04 07:18:50;;;;;;;34.28;18.00;;;4.10;71.60;;;;;;4928613;29;20201;-79
2023/03/04 07:21:19;;;;;;;35.65;18.38;;;4.10;71.60;;;;;;4927962;29;20265;-79
2023/03/04 07:23:47;;;;;;;35.20;19.00;;;4.10;71.60;;;;;;4937699;29;20212;-79
2023/03/04 07:26:15;;;;;;;32.30;17.90;;;4.10;71.60;;;;;;4928419;29;20204;-79
2023/03/04 07:28:44;;;;;;;32.88;18.95;;;4.10;71.70;;;;;;4931923;29;20223;-79
2023/03/04 07:31:22;;;;;;;37.22;19.75;;;4.10;71.70;;;;;;4929021;29;20620;-79
2023/03/04 07:33:51;;;;;;;27.10;16.80;;;4.10;71.70;;;;;;4927157;29;20743;-79
2023/03/04 07:36:19;;;;;;;31.10;17.40;;;4.10;71.70;;;;;;4934438;29;20223;-79
2023/03/04 07:38:49;;;;;;;32.67;17.30;;;4.10;71.70;;;;;;4931320;29;20209;-79
2023/03/04 07:41:18;;;;;;;32.65;17.40;;;4.20;71.70;;;;;;4940375;29;20946;-79
2023/03/04 07:43:46;;;;;;;30.55;16.75;;;4.20;71.80;;;;;;4934607;29;20212;-79
2023/03/04 07:46:15;;;;;;;28.98;17.17;;;4.20;71.70;;;;;;4927290;29;20835;-79
2023/03/04 07:48:47;;;;;;;25.95;15.85;;;4.20;71.70;;;;;;4924848;29;20219;-79
2023/03/04 07:51:17;;;;;;;29.77;16.17;;;4.20;71.80;;;;;;4940605;29;20211;-79
2023/03/04 07:53:47;;;;;;;34.55;15.93;;;4.20;71.80;;;;;;4931140;29;20292;-79
2023/03/04 07:56:17;;;;;;;27.75;17.05;;;4.30;71.80;;;;;;4930498;29;20663;-80
2023/03/04 07:58:45;;;;;;;33.88;16.80;;;4.30;71.80;;;;;;4933476;29;20535;-80
2023/03/04 08:01:15;;;;;;;27.88;17.02;;;4.30;71.80;;;;;;4928665;29;20256;-80
2023/03/04 08:03:43;;;;;;;28.63;16.38;;;4.30;71.70;;;;;;4931920;29;20233;-80
2023/03/04 08:06:14;;;;;;;31.25;17.13;;;4.30;71.70;;;;;;4918511;29;20193;-81
2023/03/04 08:08:42;;;;;;;31.13;17.27;;;4.30;71.80;;;;;;4932607;29;20685;-81
2023/03/04 08:11:13;;;;;;;31.45;17.00;;;4.30;71.70;;;;;;4929260;29;20204;-80
2023/03/04 08:13:41;;;;;;;29.90;16.55;;;4.30;71.80;;;;;;4926496;29;20773;-81
2023/03/04 08:16:12;;;;;;;31.33;17.27;;;4.40;71.80;;;;;;4935189;29;21044;-80
2023/03/04 08:18:40;;;;;;;32.30;17.23;;;4.40;71.90;;;;;;4942444;29;20571;-81
2023/03/04 08:21:09;;;;;;;27.73;16.65;;;4.40;71.90;;;;;;4935367;29;20198;-81
2023/03/04 08:24:00;;;;;;;28.73;17.13;;;4.40;71.90;;;;;;4932111;29;20211;-80
2023/03/04 08:26:32;;;;;;;28.92;15.95;;;4.40;71.90;;;;;;4925904;29;20302;-80
2023/03/04 08:29:01;;;;;;;27.05;15.77;;;4.40;71.80;;;;;;4937015;29;20286;-81
2023/03/04 08:31:31;;;;;;;26.50;17.63;;;4.40;71.90;;;;;;4940694;29;20519;-81
2023/03/04 08:33:59;;;;;;;28.50;16.13;;;4.40;71.90;;;;;;4935452;29;20218;-80
2023/03/04 08:36:27;;;;;;;33.83;17.92;;;4.40;71.90;;;;;;4924494;29;20260;-81
2023/03/04 08:38:55;;;;;;;34.00;19.42;;;4.40;71.90;;;;;;4928494;29;20209;-80
2023/03/04 08:41:39;;;;;;;27.88;17.88;;;4.50;72.00;;;;;;4919623;29;20240;-81
2023/03/04 08:44:09;;;;;;;30.92;17.45;;;4.50;72.00;;;;;;4908811;29;20275;-80
2023/03/04 08:46:38;;;;;;;34.13;19.50;;;4.50;72.00;;;;;;4925440;29;20243;-80
2023/03/04 08:49:06;;;;;;;28.85;18.00;;;4.50;72.00;;;;;;4928527;29;20200;-81
2023/03/04 08:51:35;;;;;;;29.27;18.75;;;4.50;72.00;;;;;;4937007;29;20660;-81
2023/03/04 08:54:04;;;;;;;34.15;19.67;;;4.50;72.00;;;;;;4930116;29;20217;-80
2023/03/04 08:56:32;;;;;;;36.03;19.63;;;4.50;72.00;;;;;;4943355;29;20618;-80
2023/03/04 08:59:04;;;;;;;34.15;19.67;;;4.50;72.00;;;;;;4926085;29;20243;-80
2023/03/04 09:01:32;;;;;;;34.35;19.38;;;4.60;72.10;;;;;;4926631;29;20884;-81
2023/03/04 09:04:01;;;;;;;34.33;19.23;;;4.50;72.00;;;;;;4938998;29;20197;-81
2023/03/04 09:06:29;;;;;;;29.17;17.98;;;4.50;72.00;;;;;;4928484;29;20216;-81
2023/03/04 09:08:56;;;;;;;31.50;18.20;;;4.60;72.10;;;;;;4922033;29;20646;-81
2023/03/04 09:11:29;;;;;;;32.75;18.77;;;4.60;72.10;;;;;;4930190;29;20195;-80
2023/03/04 09:14:12;;;;;;;30.83;19.35;;;4.60;72.10;;;;;;4931206;29;20224;-79
2023/03/04 09:16:43;;;;;;;32.28;18.55;;;4.60;72.20;;;;;;4929031;29;20211;-79
2023/03/04 09:19:13;;;;;;;30.25;18.50;;;4.60;72.30;;;;;;4938248;29;20199;-78
2023/03/04 09:21:41;;;;;;;32.17;17.27;;;4.70;72.30;;;;;;4927806;29;20909;-78
2023/03/04 09:24:09;;;;;;;30.20;17.70;;;4.70;72.40;;;;;;4925709;29;20209;-77
2023/03/04 09:26:36;;;;;;;33.50;19.95;;;4.80;72.40;;;;;;4925764;29;20207;-78
2023/03/04 09:29:06;;;;;;;33.22;19.35;;;4.80;72.40;;;;;;4927741;29;20204;-78
2023/03/04 09:31:34;;;;;;;35.47;17.48;;;4.90;72.50;;;;;;4921577;29;20236;-78
2023/03/04 09:34:02;;;;;;;26.20;16.88;;;5.00;72.50;;;;;;4934558;29;20203;-78
2023/03/04 09:36:30;;;;;;;33.95;17.42;;;5.00;72.50;;;;;;4938479;29;20274;-79
2023/03/04 09:39:00;;;;;;;27.70;16.92;;;5.10;72.50;;;;;;4925263;29;20225;-78
2023/03/04 09:41:36;;;;;;;30.05;17.65;;;5.10;72.50;;;;;;4932611;29;20209;-79
2023/03/04 09:44:15;;;;;;;32.13;18.17;;;5.20;72.40;;;;;;4932185;29;20250;-80
2023/03/04 09:46:45;;;;;;;31.60;16.95;;;5.20;72.30;;;;;;4935044;29;20209;-80
2023/03/04 09:49:14;;;;;;;32.80;18.48;;;5.10;72.30;;;;;;4925464;29;20196;-80
2023/03/04 09:51:50;;;;;;;24.92;15.35;;;5.10;72.30;;;;;;4943262;29;20264;-80
2023/03/04 09:54:27;;;;;;;23.95;15.98;;;5.10;72.30;;;;;;4919565;29;20200;-80
2023/03/04 09:57:01;;;;;;;26.58;15.00;;;5.10;72.20;;;;;;4924293;29;20199;-80
2023/03/04 09:59:40;;;;;;;28.05;15.90;;;5.10;72.10;;;;;;4925651;29;20205;-80
2023/03/04 10:02:20;;;;;;;25.65;15.73;;;5.10;72.20;;;;;;4924439;29;20225;-80
2023/03/04 10:04:51;;;;;;;25.02;15.25;;;5.10;72.20;;;;;;4935443;29;20209;-80
2023/03/04 10:07:23;;;;;;;30.05;16.92;;;5.10;72.20;;;;;;4927679;29;20201;-81
2023/03/04 10:09:57;;;;;;;24.50;16.45;;;5.10;72.20;;;;;;4933521;29;20204;-81
2023/03/04 10:12:29;;;;;;;28.08;16.95;;;5.10;72.30;;;;;;4930622;29;20197;-80
2023/03/04 10:15:02;;;;;;;24.90;15.00;;;5.20;72.20;;;;;;4925216;29;20196;-80
2023/03/04 10:17:37;;;;;;;27.92;15.75;;;5.10;72.10;;;;;;4933690;29;20539;-81
2023/03/04 10:20:12;;;;;;;27.38;16.23;;;5.10;72.10;;;;;;4930965;29;20205;-79
2023/03/04 10:22:44;;;;;;;30.58;16.75;;;5.00;72.10;;;;;;4934746;29;20214;-80
2023/03/04 10:25:18;;;;;;;38.80;16.98;;;5.10;72.20;;;;;;4933024;29;20208;-80
2023/03/04 10:27:51;;;;;;;32.05;15.40;;;5.10;72.30;;;;;;4928241;29;20197;-81
2023/03/04 10:30:35;;;;;;;267.63;34.40;;;5.20;72.20;;;;;;4930176;29;20208;-81
2023/03/04 10:33:10;;;;;;;48.55;17.52;;;5.30;72.10;;;;;;4917822;29;20661;-81
2023/03/04 10:35:39;;;;;;;29.27;15.45;;;5.30;72.30;;;;;;4929889;29;20203;-81
2023/03/04 10:38:09;;;;;;;110.38;21.65;;;5.40;72.40;;;;;;4926966;29;20312;-81
2023/03/04 10:40:39;;;;;;;338.33;41.05;;;5.40;72.30;;;;;;4932296;29;20261;-82
2023/03/04 10:43:15;;;;;;;60.65;19.65;;;5.50;72.10;;;;;;4922670;29;20228;-82
2023/03/04 10:45:46;;;;;;;71.32;18.45;;;5.50;72.10;;;;;;4938076;29;20608;-80
2023/03/04 10:48:23;;;;;;;72.40;16.60;;;5.50;72.00;;;;;;4925551;29;20199;-81
2023/03/04 10:50:51;;;;;;;205.90;26.60;;;5.50;72.00;;;;;;4921500;29;20204;-82
2023/03/04 10:53:32;;;;;;;82.35;15.88;;;5.50;72.00;;;;;;4938483;29;20209;-81
2023/03/04 10:56:01;;;;;;;26.20;14.40;;;5.50;71.90;;;;;;4940157;29;20705;-82
2023/03/04 10:58:29;;;;;;;25.25;12.40;;;5.50;72.00;;;;;;4924586;29;20221;-80
2023/03/04 11:01:04;;;;;;;31.92;13.68;;;5.60;72.00;;;;;;4902816;29;20236;-82
2023/03/04 11:03:55;;;;;;;28.17;12.05;;;5.60;72.00;;;;;;4930535;29;20274;-81
2023/03/04 11:06:23;;;;;;;23.70;12.60;;;5.60;71.90;;;;;;4916190;29;20225;-81
2023/03/04 11:08:55;;;;;;;24.08;12.15;;;5.50;71.70;;;;;;4928624;29;20262;-82
2023/03/04 11:11:28;;;;;;;27.67;13.30;;;5.50;71.90;;;;;;4929581;29;20204;-81
2023/03/04 11:14:00;;;;;;;26.55;14.55;;;5.50;72.00;;;;;;4931516;29;20204;-81
2023/03/04 11:16:33;;;;;;;35.65;16.55;;;5.50;72.00;;;;;;4929596;29;20206;-80
2023/03/04 11:19:05;;;;;;;35.05;16.52;;;5.60;72.00;;;;;;4908717;29;20226;-81
2023/03/04 11:21:39;;;;;;;22.90;13.73;;;5.60;71.90;;;;;;4937357;29;20215;-81
2023/03/04 11:24:13;;;;;;;27.42;15.65;;;5.60;71.90;;;;;;4915361;29;20236;-82
2023/03/04 11:27:01;;;;;;;29.75;15.25;;;5.60;71.80;;;;;;4934803;29;20209;-82
2023/03/04 11:29:33;;;;;;;28.55;14.93;;;5.70;72.10;;;;;;4924585;29;20236;-83
2023/03/04 11:32:09;;;;;;;32.45;15.23;;;5.80;72.20;;;;;;4901534;29;20236;-83
2023/03/04 11:34:43;;;;;;;23.17;13.80;;;5.90;72.10;;;;;;4925925;29;20206;-83
2023/03/04 11:37:18;;;;;;;25.23;11.43;;;6.00;71.90;;;;;;4931005;29;20250;-83
2023/03/04 11:39:51;;;;;;;22.40;11.57;;;5.90;71.30;;;;;;4922970;29;20209;-83
2023/03/04 11:42:28;;;;;;;21.42;10.52;;;6.00;71.30;;;;;;4919889;29;20650;-83
2023/03/04 11:44:56;;;;;;;25.85;11.00;;;5.90;71.20;;;;;;4931672;29;20217;-83
2023/03/04 11:47:45;;;;;;;18.77;10.32;;;5.80;70.80;;;;;;4923075;29;20255;-83
2023/03/04 11:50:30;;;;;;;25.05;10.75;;;5.80;71.40;;;;;;4943488;29;20201;-83
2023/03/04 11:53:35;;;;;;;22.48;9.57;;;5.80;71.20;;;;;;4925034;29;20671;-83
2023/03/04 11:56:18;;;;;;;24.80;11.68;;;5.70;71.10;;;;;;4913197;29;20561;-84
2023/03/04 11:59:07;;;;;;;22.35;10.93;;;5.80;71.10;;;;;;4929384;29;20209;-83
2023/03/04 12:01:45;;;;;;;23.52;9.52;;;5.90;71.10;;;;;;4924004;29;20246;-83
2023/03/04 12:04:47;;;;;;;24.10;9.90;;;5.90;71.00;;;;;;4928571;29;20202;-83
2023/03/04 12:07:33;;;;;;;19.05;11.00;;;6.00;70.80;;;;;;4934955;29;20224;-83
2023/03/04 12:10:09;;;;;;;22.42;9.95;;;6.00;70.80;;;;;;4929531;29;20197;-84
2023/03/04 12:12:52;;;;;;;24.58;9.75;;;6.00;70.80;;;;;;4903910;29;20249;-83
2023/03/04 12:15:28;;;;;;;30.20;10.75;;;6.00;70.80;;;;;;4933517;29;20206;-83
2023/03/04 12:18:17;;;;;;;22.15;9.52;;;6.10;71.00;;;;;;4928638;29;20263;-83
2023/03/04 12:21:03;;;;;;;23.00;9.75;;;6.10;70.80;;;;;;4928083;29;20228;-83
2023/03/04 12:23:53;;;;;;;23.55;11.02;;;6.10;70.60;;;;;;4939142;29;20687;-83
2023/03/04 12:26:29;;;;;;;26.83;11.80;;;6.10;70.60;;;;;;4921770;29;20215;-82
2023/03/04 12:29:04;;;;;;;20.88;10.13;;;6.10;70.50;;;;;;4931222;29;20198;-82
2023/03/04 12:31:38;;;;;;;22.13;12.43;;;6.10;70.50;;;;;;4935778;29;20239;-82
2023/03/04 12:34:39;;;;;;;26.80;11.23;;;6.20;70.50;;;;;;4929691;29;20271;-82
2023/03/04 12:37:34;;;;;;;27.75;12.15;;;6.20;70.60;;;;;;4930931;29;20217;-82
2023/03/04 12:40:30;;;;;;;23.38;11.65;;;6.20;70.60;;;;;;4913641;29;20318;-82
2023/03/04 12:43:09;;;;;;;27.30;11.50;;;6.30;70.50;;;;;;4930740;29;20284;-82
2023/03/04 12:45:46;;;;;;;22.55;11.60;;;6.40;70.50;;;;;;4922030;29;20213;-81
2023/03/04 12:48:27;;;;;;;26.50;12.65;;;6.40;70.40;;;;;;4924914;29;20615;-82
2023/03/04 12:51:08;;;;;;;20.50;11.70;;;6.40;70.20;;;;;;4906769;29;20295;-82
2023/03/04 12:53:43;;;;;;;23.83;11.88;;;6.40;70.00;;;;;;4926276;29;20257;-82
2023/03/04 12:56:22;;;;;;;24.75;11.48;;;6.40;70.10;;;;;;4929713;29;20205;-82
2023/03/04 12:58:51;;;;;;;23.15;11.98;;;6.40;70.10;;;;;;4921215;29;20195;-81